Ana Sayfa
METAR-TAF:

METAR-TAF

Havaalanları :

Tela, Honduras

Enlem: 15-43N, Boylam: 087-29W, yükseklik: 3 m

Güncel hava durumu gözlemi

Rapor saat 02:00 UTC de 31 dakika önce yapıldı.
Rüzgar doğu/güneydoğudan 8 kt
Sıcaklık 23°C
Nem 100%
Basınç 1014 hPa
Görüş mesafesi: 6000 m
2600 ft yükseklikte parçalı çok bulutlu, Kümülonimbus.
8000 ft yükseklikte parçalı çok bulutlu
gök gürültülü fırtına, şiddetli yağmur,

METAR: MHTE 160200Z 11008KT 6000 +TSRA BKN026CB BKN080 23/23 Q1014 A2994

Saat: 20:31 (02:31 UTC)


TAF: eksik

4.000'den fazla havaalanı için hava durumu gözlemleri ve tahminleri (METAR ve TAF raporları).

Kullanılabilir istasyonlar harita üzerinde sarı ve kırmızı noktalarla gösterilir.

İstasyonun adını görmek için fareyi noktanın üzerinde gezdirin.

Sonrasında hava gözlem ve tahminlerini görmek için tıklayın.

Haritayı değiştirmek için: yaklaştırmak için siyah artı işaretli yeşil düğmeye ve uzaklaştırmak için de eksi işaretli düğmeye hızla tıklayın; bitişik haritalar için yeşil okları kullanın.


METAR-TAF: